Flight Track Log - Related Links

Times and Time Zones

All times are in EDT time to prevent confusion due to time zone crossing. See the SWA718 flight status page for this flight to view local times or setup timezone preferences in your user account.

Time Position Orientation Groundspeed Altitude Reporting Facility
EDT Latitude Longitude Course Direction KTS MPH feet Rate Location/Type
Wed 04:56:15 PM 29.6375 -95.2889 170° South 146 168 600  Level Houston Center
Wed 04:57:12 PM 29.6011 -95.2817 170° South 183 211 3,500 3,025 Climbing Houston Center
Wed 04:58:14 PM 29.5475 -95.2478 151° Southeast 229 264 6,600 3,484 Climbing Houston Center
Wed 04:59:16 PM 29.5508 -95.1469 88° East 304 350 10,700 3,774 Climbing Houston Center
Wed 05:00:18 PM 29.5864 -95.0475 68° East 346 398 14,400 3,216 Climbing Houston Center
Wed 05:01:21 PM 29.6242 -94.9419 68° East 359 413 17,400 3,024 Climbing Houston Center
Wed 05:02:23 PM 29.6650 -94.8272 68° East 385 443 20,700 3,194 Climbing Houston Center
Wed 05:03:25 PM 29.7108 -94.6769 71° East 415 478 24,000 2,855 Climbing Houston Center
Wed 05:04:27 PM 29.7144 -94.5386 88° East 431 496 26,600 2,081 Climbing Houston Center
Wed 05:05:29 PM 29.7183 -94.3947 88° East 446 513 28,300 1,584 Climbing Houston Center
Wed 05:06:32 PM 29.7106 -94.2392 93° East 483 556 29,900 1,306 Climbing Houston Center
Wed 05:07:33 PM 29.6908 -94.0775 98° East 510 587 31,000 537 Climbing Houston Center
Wed 05:08:35 PM 29.6850 -93.9142 92° East 513 590 31,000 48 Level Houston Center
Wed 05:09:37 PM 29.6836 -93.7214 90° East 508 585 31,100 960 Climbing Houston Center
Wed 05:10:40 PM 29.6808 -93.5589 91° East 510 587 33,000 1,636 Climbing Houston Center
Wed 05:12:44 PM 29.6767 -93.2158 91° East 516 594 36,200 1,516 Climbing Houston Center
Wed 05:13:46 PM 29.6739 -93.0456 91° East 529 609 37,700 1,500 Climbing Houston Center
Wed 05:14:48 PM 29.6711 -92.8758 91° East 533 613 39,300 1,597 Climbing Houston Center
Wed 05:15:50 PM 29.6692 -92.7117 91° East 523 602 41,000 823 Climbing Houston Center
Wed 05:16:00 PM 29.6673 -92.7098 91° East  Level FlightAware Approximate
Wed 05:16:52 PM 29.6556 -92.5256 95° East 501 577 41,000  Level Houston Center
Wed 05:17:54 PM 29.6269 -92.3719 102° East 496 571 41,000  Level Houston Center
Wed 05:18:57 PM 29.5975 -92.2164 102° East 498 573 41,000  Level Houston Center
Wed 05:19:59 PM 29.5686 -92.0611 102° East 500 575 41,000  Level Houston Center
Wed 05:21:01 PM 29.5386 -91.9069 103° East 498 573 41,000  Level Houston Center
Wed 05:22:03 PM 29.5039 -91.7225 102° East 496 571 41,000  Level Houston Center
Wed 05:23:05 PM 29.4783 -91.5931 103° East 495 570 41,000  Level Houston Center
Wed 05:24:07 PM 29.4425 -91.4086 103° East 496 571 41,000  Level Houston Center
Wed 05:25:09 PM 29.4136 -91.2564 102° East 492 566 41,000  Level Houston Center
Wed 05:26:11 PM 29.3831 -91.1036 103° East 492 566 41,000  Level Houston Center
Wed 05:27:13 PM 29.3528 -90.9525 103° East 491 565 41,000  Level Houston Center
Wed 05:28:16 PM 29.3222 -90.8028 103° East 488 562 41,000  Level Houston Center
Wed 05:29:18 PM 29.2867 -90.6217 103° East 488 562 41,000  Level Houston Center
Wed 05:30:20 PM 29.2558 -90.4697 103° East 490 564 41,000  Level Houston Center
Wed 05:31:22 PM 29.2247 -90.3194 103° East 488 562 41,000  Level Houston Center
Wed 05:32:24 PM 29.1944 -90.1700 103° East 487 560 41,000  Level Houston Center
Wed 05:33:26 PM 29.1636 -90.0214 103° East 484 557 41,000  Level Houston Center
Wed 05:34:28 PM 29.1256 -89.8458 104° East 479 551 41,000  Level Houston Center
Wed 05:35:31 PM 29.0956 -89.6969 103° East 481 554 41,000  Level Houston Center
Wed 05:36:33 PM 29.0633 -89.5456 104° East 486 559 41,000  Level Houston Center
Wed 05:37:35 PM 29.0322 -89.3953 103° East 490 564 41,000  Level Houston Center
Wed 05:38:37 PM 28.9997 -89.2494 104° East 481 554 41,000  Level Houston Center
Wed 05:39:39 PM 28.9619 -89.0689 103° East 485 558 41,000  Level Houston Center
Wed 05:40:41 PM 28.9292 -88.9203 104° East 486 559 41,000  Level Houston Center
Wed 05:41:43 PM 28.8961 -88.7697 104° East 489 563 41,000  Level Houston Center
Wed 05:42:45 PM 28.8611 -88.6208 105° East 488 562 41,000  Level Houston Center
Wed 05:43:48 PM 28.8186 -88.4736 108° East 490 564 41,000  Level Houston Center
Wed 05:44:50 PM 28.7775 -88.3267 108° East 490 564 41,000  Level Houston Center
Wed 05:45:52 PM 28.7272 -88.1506 108° East 488 562 41,000  Level Houston Center
Wed 05:46:54 PM 28.6889 -87.9992 106° East 493 567 41,000  Level Houston Center
Wed 05:47:56 PM 28.6464 -87.8503 108° East 494 568 41,000  Level Houston Center
Wed 05:48:58 PM 28.6033 -87.7028 108° East 493 567 41,000  Level Houston Center
Wed 05:49:31 PM 28.5764 -87.6175 110° East 480 552 41,000  Level Jacksonville Center
Wed 05:50:31 PM 28.5397 -87.4764 106° East 474 545 41,000  Level Jacksonville Center
Wed 05:51:31 PM 28.4989 -87.3331 108° East 479 551 41,000  Level Jacksonville Center
Wed 05:52:31 PM 28.4578 -87.1894 108° East 479 551 41,000  Level Jacksonville Center
Wed 05:53:31 PM 28.4125 -87.0436 109° East 479 551 41,000  Level Jacksonville Center
Wed 05:54:31 PM 28.3714 -86.8956 107° East 479 551 41,000  Level Jacksonville Center
Wed 05:55:31 PM 28.3278 -86.7525 109° East 487 560 41,000  Level Jacksonville Center
Wed 05:56:31 PM 28.2881 -86.6119 108° East 483 556 41,000  Level Jacksonville Center
Wed 05:57:31 PM 28.2425 -86.4594 109° East 495 570 41,000  Level Jacksonville Center
Wed 05:58:31 PM 28.2006 -86.3097 108° East 488 562 41,000  Level Jacksonville Center
Wed 05:59:31 PM 28.1564 -86.1669 109° East 482 555 41,000  Level Jacksonville Center
Wed 06:00:31 PM 28.1139 -86.0267 109° East 483 556 41,000  Level Jacksonville Center
Wed 06:02:08 PM 28.0453 -85.7936 108° East 535 616 41,000  Level Miami Center
Wed 06:03:08 PM 28.0019 -85.6517 109° East 503 579 41,000  Level Miami Center
Wed 06:04:08 PM 27.9664 -85.5200 107° East 473 544 41,000  Level Miami Center
Wed 06:05:08 PM 27.9189 -85.3733 110° East 473 544 41,000  Level Miami Center
Wed 06:07:08 PM 27.8922 -85.0781 96° East 468 539 41,000  Level Miami Center
Wed 06:08:08 PM 27.8869 -84.9158 92° East 473 544 41,000  Level Miami Center
Wed 06:09:08 PM 27.8867 -84.7681 90° East 473 544 41,000  Level Miami Center
Wed 06:10:08 PM 27.8831 -84.6458 92° East 473 544 41,000 -600 Level Miami Center
Wed 06:11:08 PM 27.8778 -84.4697 92° East 483 556 39,800 -950 Descending Miami Center
Wed 06:12:08 PM 27.8783 -84.3406 90° East 478 550 39,100 -950 Descending Miami Center
Wed 06:13:08 PM 27.8722 -84.1761 92° East 478 550 37,900 -1,000 Descending Miami Center
Wed 06:14:08 PM 27.8725 -84.0447 90° East 478 550 37,100 -850 Descending Miami Center
Wed 06:15:08 PM 27.8656 -83.8942 93° East 478 550 36,200 -1,200 Descending Miami Center
Wed 06:16:08 PM 27.8625 -83.7414 91° East 483 556 34,700 -2,500 Descending Miami Center
Wed 06:17:08 PM 27.8592 -83.5886 91° East 483 556 31,200 -3,450 Descending Miami Center
Wed 06:18:08 PM 27.8539 -83.4336 92° East 483 556 27,800 -3,200 Descending Miami Center
Wed 06:19:08 PM 27.8483 -83.2831 92° East 483 556 24,800 -2,450 Descending Miami Center
Wed 06:20:08 PM 27.8461 -83.1397 91° East 478 550 22,900 -1,500 Descending Miami Center
Wed 06:21:08 PM 27.8417 -83.0058 92° East 451 519 21,800 -1,100 Descending Miami Center
Wed 06:22:08 PM 27.8314 -82.8528 94° East 444 511 20,700 -1,050 Descending Miami Center
Wed 06:23:08 PM 27.8244 -82.7186 93° East 444 511 19,700 -1,000 Descending Miami Center
Wed 06:24:08 PM 27.8256 -82.5875 89° East 431 496 18,700 -950 Descending Miami Center
Wed 06:25:08 PM 27.8403 -82.4756 82° East 404 465 17,800 -900 Descending Miami Center
Wed 06:26:08 PM 27.8803 -82.3600 69° East 393 452 16,900 -1,020 Descending Miami Center
Wed 06:28:28 PM 27.9667 -82.0667 71° East 384 442 14,400 -1,050 Descending Orlando TRACON
Wed 06:29:28 PM 28.0167 -81.9667 60° Northeast 377 434 13,400 -750 Descending Orlando TRACON
Wed 06:30:28 PM 28.0500 -81.8667 69° East 346 398 12,900 -750 Descending Orlando TRACON
Wed 06:31:28 PM 28.1000 -81.7833 56° Northeast 298 343 11,900 -1,350 Descending Orlando TRACON
Wed 06:32:28 PM 28.1333 -81.7000 66° East 301 346 10,200 -1,300 Descending Orlando TRACON
Wed 06:33:28 PM 28.1500 -81.6000 79° East 289 333 9,300 -1,041 Descending Orlando TRACON
Wed 06:34:29 PM 28.1667 -81.5333 74° East 247 284 8,100 -1,300 Descending Orlando TRACON
Wed 06:35:28 PM 28.1833 -81.4500 77° East 232 267 6,700 -1,400 Descending Orlando TRACON
Wed 06:36:29 PM 28.2000 -81.3833 74° East 226 260 5,300 -1,339 Descending Orlando TRACON
Wed 06:37:29 PM 28.2333 -81.3333 53° Northeast 224 258 4,000 -1,350 Descending Orlando TRACON
Wed 06:38:29 PM 28.2833 -81.3000 30° Northeast 209 241 2,600 -1,250 Descending Orlando TRACON
Wed 06:39:29 PM 28.3333 -81.3000 360° North 165 190 1,500 -850 Descending Orlando TRACON
Wed 06:40:29 PM 28.3667 -81.3000 360° North 120 138 900 -650 Descending Orlando TRACON
Wed 06:41:29 PM 28.4000 -81.3000 360° North 122 140 200 -700 Descending Orlando TRACON

Login

Don't have an account? Register now (free) for customized features, flight alerts, and more!